Time;durP1;ratioP1;P1;durP2;ratioP2;P2;SDS_P1;SDS_P2;PMS_P1;PMS_P2;Temp;Humidity;BMP_temperature;BMP_pressure;BME280_temperature;BME280_humidity;BME280_pressure;Samples;Min_cycle;Max_cycle;Signal;HPM_P1;HPM_P2
2022/06/04 00:01:50;;;;;;;0.00;0.00;;;18.50;1.00;;;;;;5077793;28;20212;-70
2022/06/04 00:04:18;;;;;;;0.00;0.00;;;18.50;1.00;;;;;;5078797;28;20208;-70
2022/06/04 00:06:46;;;;;;;0.00;0.00;;;18.50;1.00;;;;;;5078913;28;20624;-72
2022/06/04 00:09:15;;;;;;;0.00;0.00;;;18.50;1.00;;;;;;5077545;28;20205;-69
2022/06/04 00:17:17;;;;;;;0.10;0.10;;;18.30;1.00;;;;;;5077743;28;20224;-71
2022/06/04 00:19:45;;;;;;;0.00;0.00;;;18.30;1.00;;;;;;5077218;28;20278;-70
2022/06/04 00:22:13;;;;;;;0.00;0.00;;;18.20;1.00;;;;;;5080367;28;20582;-71
2022/06/04 00:24:43;;;;;;;0.00;0.00;;;18.20;1.00;;;;;;5074738;28;20220;-71
2022/06/04 00:27:17;;;;;;;0.00;0.00;;;18.00;1.00;;;;;;5078759;28;20234;-71
2022/06/04 00:29:44;;;;;;;0.00;0.00;;;18.00;1.00;;;;;;5079333;28;20621;-70
2022/06/04 00:32:14;;;;;;;0.00;0.00;;;18.00;1.00;;;;;;5079568;28;20554;-71
2022/06/04 00:34:42;;;;;;;0.00;0.00;;;18.00;1.00;;;;;;5080159;28;20221;-70
2022/06/04 00:37:10;;;;;;;0.00;0.00;;;17.90;1.00;;;;;;5081531;28;20783;-71
2022/06/04 00:39:38;;;;;;;0.00;0.00;;;17.80;1.00;;;;;;5077636;28;20224;-71
2022/06/04 00:42:10;;;;;;;0.00;0.00;;;17.80;1.00;;;;;;5081082;28;20267;-71
2022/06/04 00:45:14;;;;;;;0.00;0.00;;;17.90;1.00;;;;;;5079424;28;20237;-71
2022/06/04 00:47:42;;;;;;;0.00;0.00;;;17.80;1.00;;;;;;5080406;28;20201;-70
2022/06/04 00:50:11;;;;;;;0.00;0.00;;;17.90;1.00;;;;;;5078248;28;20591;-70
2022/06/04 00:52:40;;;;;;;0.00;0.00;;;18.00;1.00;;;;;;5080416;28;20371;-70
2022/06/04 00:55:09;;;;;;;0.10;0.10;;;18.00;1.00;;;;;;5077291;28;20221;-71
2022/06/04 00:58:19;;;;;;;0.00;0.00;;;18.00;1.00;;;;;;5081839;28;20201;-71
2022/06/04 01:00:54;;;;;;;0.00;0.00;;;18.00;1.00;;;;;;5080221;28;20224;-70
2022/06/04 01:03:36;;;;;;;0.00;0.00;;;17.90;1.00;;;;;;5079647;28;20228;-69
2022/06/04 01:06:20;;;;;;;0.00;0.00;;;17.80;1.00;;;;;;5096381;28;20197;-71
2022/06/04 01:09:18;;;;;;;0.00;0.00;;;17.80;1.00;;;;;;5078341;28;20252;-70
2022/06/04 01:12:13;;;;;;;0.00;0.00;;;17.70;1.00;;;;;;5078601;28;20217;-70
2022/06/04 01:14:56;;;;;;;0.00;0.00;;;17.80;1.00;;;;;;5077839;28;20251;-70
2022/06/04 01:17:34;;;;;;;0.00;0.00;;;17.70;1.00;;;;;;5079496;28;20329;-71
2022/06/04 01:20:14;;;;;;;0.00;0.00;;;17.50;1.00;;;;;;5081402;28;20275;-71
2022/06/04 01:23:05;;;;;;;0.00;0.00;;;17.60;1.00;;;;;;5082893;28;20258;-71
2022/06/04 01:25:46;;;;;;;0.00;0.00;;;17.70;1.00;;;;;;5082899;28;20204;-71
2022/06/04 01:28:17;;;;;;;0.00;0.00;;;17.70;1.00;;;;;;5082782;28;20668;-71
2022/06/04 01:30:48;;;;;;;0.00;0.00;;;17.70;1.00;;;;;;5081683;28;20204;-71
2022/06/04 01:33:19;;;;;;;0.00;0.00;;;17.70;1.00;;;;;;5080618;28;20730;-71
2022/06/04 01:35:51;;;;;;;0.00;0.00;;;17.60;1.00;;;;;;5082560;28;20206;-71
2022/06/04 01:38:27;;;;;;;0.00;0.00;;;17.60;1.00;;;;;;5082905;28;20205;-71
2022/06/04 01:41:06;;;;;;;0.00;0.00;;;17.50;1.00;;;;;;5083956;28;20232;-71
2022/06/04 01:43:41;;;;;;;0.00;0.00;;;17.40;1.00;;;;;;5081442;28;20225;-71
2022/06/04 01:46:16;;;;;;;0.00;0.00;;;17.40;1.00;;;;;;5084079;28;20288;-71
2022/06/04 01:48:46;;;;;;;0.00;0.00;;;17.30;1.00;;;;;;5083013;28;20263;-71
2022/06/04 01:51:20;;;;;;;0.00;0.00;;;17.30;1.00;;;;;;5083087;28;20246;-71
2022/06/04 01:53:51;;;;;;;0.00;0.00;;;17.20;1.00;;;;;;5081442;28;20712;-71
2022/06/04 01:56:22;;;;;;;0.00;0.00;;;17.20;1.00;;;;;;5083516;28;20228;-71
2022/06/04 01:58:55;;;;;;;0.00;0.00;;;17.20;1.00;;;;;;5081608;28;20189;-71
2022/06/04 02:01:30;;;;;;;0.00;0.00;;;17.10;1.00;;;;;;5081876;28;20233;-70
2022/06/04 02:04:02;;;;;;;0.10;0.10;;;17.10;1.00;;;;;;5080948;28;20220;-70
2022/06/04 02:06:35;;;;;;;0.00;0.00;;;17.10;1.00;;;;;;5083221;28;20326;-71
2022/06/04 02:09:08;;;;;;;0.00;0.00;;;17.10;1.00;;;;;;5081257;28;20262;-71
2022/06/04 02:11:38;;;;;;;0.00;0.00;;;17.20;1.00;;;;;;5083229;28;20547;-70
2022/06/04 02:14:09;;;;;;;0.00;0.00;;;17.30;1.00;;;;;;5082034;28;20221;-70
2022/06/04 02:16:41;;;;;;;0.00;0.00;;;17.20;1.00;;;;;;5082923;28;20753;-70
2022/06/04 02:19:09;;;;;;;0.00;0.00;;;17.20;1.00;;;;;;5082963;28;20262;-71
2022/06/04 02:21:38;;;;;;;0.00;0.00;;;17.20;1.00;;;;;;5082938;28;20217;-71
2022/06/04 02:24:07;;;;;;;0.00;0.00;;;17.20;1.00;;;;;;5082094;28;20225;-70
2022/06/04 02:26:35;;;;;;;0.00;0.00;;;17.10;1.00;;;;;;5082048;28;20197;-68
2022/06/04 02:29:04;;;;;;;0.00;0.00;;;17.20;1.00;;;;;;5085343;28;20246;-70
2022/06/04 02:31:42;;;;;;;0.00;0.00;;;17.20;1.00;;;;;;5085335;28;20201;-68
2022/06/04 02:34:18;;;;;;;0.00;0.00;;;17.10;1.00;;;;;;5084931;28;20299;-67
2022/06/04 02:36:51;;;;;;;0.00;0.00;;;17.10;1.00;;;;;;5082672;28;20216;-68
2022/06/04 02:39:25;;;;;;;0.00;0.00;;;16.90;1.00;;;;;;5079262;28;20699;-69
2022/06/04 02:42:00;;;;;;;0.00;0.00;;;16.80;1.00;;;;;;5082694;28;20221;-70
2022/06/04 02:44:29;;;;;;;0.00;0.00;;;16.70;1.00;;;;;;5079758;28;20711;-69
2022/06/04 02:47:05;;;;;;;0.00;0.00;;;16.80;1.00;;;;;;5081334;28;20251;-69
2022/06/04 02:49:39;;;;;;;0.05;0.05;;;16.80;1.00;;;;;;5080193;28;20201;-68
2022/06/04 02:52:10;;;;;;;0.00;0.00;;;16.80;1.00;;;;;;5082095;28;20620;-69
2022/06/04 02:54:44;;;;;;;0.00;0.00;;;16.80;1.00;;;;;;5080084;28;20224;-69
2022/06/04 02:57:14;;;;;;;0.00;0.00;;;16.80;1.00;;;;;;5081884;28;20197;-69
2022/06/04 02:59:43;;;;;;;0.00;0.00;;;16.80;1.00;;;;;;5080441;28;20197;-67
2022/06/04 03:02:15;;;;;;;0.00;0.00;;;16.80;1.00;;;;;;5081025;28;20228;-70
2022/06/04 03:04:47;;;;;;;0.00;0.00;;;16.80;1.00;;;;;;5080718;28;20267;-69
2022/06/04 03:07:15;;;;;;;0.00;0.00;;;16.80;1.00;;;;;;5080901;28;20197;-69
2022/06/04 03:09:44;;;;;;;0.00;0.00;;;16.80;1.00;;;;;;5079663;28;20219;-69
2022/06/04 03:12:12;;;;;;;0.03;0.03;;;16.80;1.00;;;;;;5082583;28;20260;-69
2022/06/04 03:14:41;;;;;;;0.00;0.00;;;16.80;1.00;;;;;;5081157;28;20217;-69
2022/06/04 03:17:11;;;;;;;0.00;0.00;;;16.80;1.00;;;;;;5079766;28;20193;-69
2022/06/04 03:19:40;;;;;;;0.00;0.00;;;16.70;1.00;;;;;;5078704;28;20251;-69
2022/06/04 03:22:08;;;;;;;0.00;0.00;;;16.60;1.00;;;;;;5081056;28;20264;-68
2022/06/04 03:24:36;;;;;;;0.00;0.00;;;16.70;1.00;;;;;;5079011;28;20283;-69
2022/06/04 03:27:04;;;;;;;0.00;0.00;;;16.60;1.00;;;;;;5081121;28;20194;-68
2022/06/04 03:29:32;;;;;;;0.00;0.00;;;16.60;1.00;;;;;;5079208;28;20205;-69
2022/06/04 03:32:00;;;;;;;0.00;0.00;;;16.60;1.00;;;;;;5081683;28;20247;-69
2022/06/04 03:34:27;;;;;;;0.00;0.00;;;16.70;1.00;;;;;;5078807;28;20773;-69
2022/06/04 03:36:56;;;;;;;0.00;0.00;;;16.80;1.00;;;;;;5080439;28;20200;-69
2022/06/04 03:39:24;;;;;;;0.00;0.00;;;16.80;1.00;;;;;;5077941;28;20263;-69
2022/06/04 03:41:52;;;;;;;0.00;0.00;;;16.70;1.00;;;;;;5079344;28;20218;-68
2022/06/04 03:44:20;;;;;;;0.00;0.00;;;16.80;1.00;;;;;;5080032;28;20225;-68
2022/06/04 03:46:48;;;;;;;0.00;0.00;;;16.80;1.00;;;;;;5081216;28;20681;-68
2022/06/04 03:49:15;;;;;;;0.00;0.00;;;16.80;1.00;;;;;;5078403;28;20193;-68
2022/06/04 03:51:43;;;;;;;0.00;0.00;;;16.90;1.00;;;;;;5078790;28;20202;-68
2022/06/04 03:54:12;;;;;;;0.00;0.00;;;16.90;1.00;;;;;;5079822;28;20646;-68
2022/06/04 03:56:40;;;;;;;0.00;0.00;;;16.90;1.00;;;;;;5080336;28;20742;-68
2022/06/04 03:59:08;;;;;;;0.00;0.00;;;16.90;1.00;;;;;;5079008;28;20606;-68
2022/06/04 04:01:36;;;;;;;0.00;0.00;;;16.90;1.00;;;;;;5080916;28;20255;-69
2022/06/04 04:04:04;;;;;;;0.00;0.00;;;16.80;1.00;;;;;;5081076;28;20618;-68
2022/06/04 04:06:34;;;;;;;0.00;0.00;;;16.70;1.00;;;;;;5079127;28;20198;-69
2022/06/04 04:09:02;;;;;;;0.00;0.00;;;16.70;1.00;;;;;;5077687;28;20570;-69
2022/06/04 04:11:31;;;;;;;0.00;0.00;;;16.70;1.00;;;;;;5078490;28;20703;-69
2022/06/04 04:13:59;;;;;;;0.00;0.00;;;16.60;1.00;;;;;;5079285;28;20222;-70
2022/06/04 04:16:26;;;;;;;0.00;0.00;;;16.60;1.00;;;;;;5080391;28;20205;-69
2022/06/04 04:18:54;;;;;;;0.00;0.00;;;16.60;1.00;;;;;;5079530;28;20232;-69
2022/06/04 04:21:23;;;;;;;0.00;0.00;;;16.60;1.00;;;;;;5079506;28;20216;-69
2022/06/04 04:23:51;;;;;;;0.00;0.00;;;16.70;1.00;;;;;;5079489;28;20688;-70
2022/06/04 04:26:19;;;;;;;0.00;0.00;;;16.80;1.00;;;;;;5079530;28;20209;-70
2022/06/04 04:28:48;;;;;;;0.00;0.00;;;16.70;1.00;;;;;;5079182;28;20687;-70
2022/06/04 04:31:19;;;;;;;0.00;0.00;;;16.80;1.00;;;;;;5079700;28;20225;-69
2022/06/04 04:33:47;;;;;;;0.00;0.00;;;16.80;1.00;;;;;;5080341;28;20221;-69
2022/06/04 04:36:15;;;;;;;0.00;0.00;;;16.90;1.00;;;;;;5079762;28;20197;-69
2022/06/04 04:38:43;;;;;;;0.00;0.00;;;17.00;1.00;;;;;;5078939;28;20220;-71
2022/06/04 04:41:12;;;;;;;0.00;0.00;;;17.00;1.00;;;;;;5078376;28;20251;-69
2022/06/04 04:43:40;;;;;;;0.00;0.00;;;17.00;1.00;;;;;;5079650;28;20282;-69
2022/06/04 04:46:12;;;;;;;0.00;0.00;;;17.10;1.00;;;;;;5079202;28;20202;-69
2022/06/04 04:48:40;;;;;;;0.00;0.00;;;17.20;1.00;;;;;;5077464;28;20192;-68
2022/06/04 04:51:13;;;;;;;0.00;0.00;;;17.20;1.00;;;;;;5078889;28;20198;-68
2022/06/04 04:53:41;;;;;;;0.00;0.00;;;17.20;1.00;;;;;;5078037;28;20224;-68
2022/06/04 04:56:09;;;;;;;0.00;0.00;;;17.10;1.00;;;;;;5078083;28;20212;-68
2022/06/04 04:58:37;;;;;;;0.00;0.00;;;17.00;1.00;;;;;;5077933;28;20264;-68
2022/06/04 05:01:04;;;;;;;0.00;0.00;;;17.10;1.00;;;;;;5079210;28;20208;-68
2022/06/04 05:03:34;;;;;;;0.00;0.00;;;17.10;1.00;;;;;;5079752;28;20275;-68
2022/06/04 05:06:03;;;;;;;0.00;0.00;;;17.20;1.00;;;;;;5077860;28;20216;-69
2022/06/04 05:08:31;;;;;;;0.00;0.00;;;17.30;1.00;;;;;;5078750;28;20209;-68
2022/06/04 05:11:07;;;;;;;0.00;0.00;;;17.40;1.00;;;;;;5078284;28;20202;-68
2022/06/04 05:13:35;;;;;;;0.00;0.00;;;17.40;1.00;;;;;;5076952;28;20212;-69
2022/06/04 05:16:03;;;;;;;0.00;0.00;;;17.30;1.00;;;;;;5079768;28;20193;-69
2022/06/04 05:18:31;;;;;;;0.00;0.00;;;17.40;1.00;;;;;;5079129;28;20737;-68
2022/06/04 05:21:11;;;;;;;0.00;0.00;;;17.50;1.00;;;;;;5076026;28;20205;-67
2022/06/04 05:23:38;;;;;;;0.00;0.00;;;17.60;1.00;;;;;;5079849;28;20244;-68
2022/06/04 05:26:06;;;;;;;0.00;0.00;;;17.70;1.00;;;;;;5077819;28;20224;-69
2022/06/04 05:28:34;;;;;;;0.00;0.00;;;17.80;1.00;;;;;;5078050;28;20201;-68
2022/06/04 05:31:02;;;;;;;0.00;0.00;;;17.80;1.00;;;;;;5076860;28;20202;-68
2022/06/04 05:33:30;;;;;;;0.00;0.00;;;17.90;1.00;;;;;;5077830;28;20577;-69
2022/06/04 05:35:58;;;;;;;0.00;0.00;;;17.90;1.00;;;;;;5078588;28;20289;-69
2022/06/04 05:38:27;;;;;;;0.00;0.00;;;17.80;1.00;;;;;;5077897;28;20206;-67
2022/06/04 05:41:00;;;;;;;0.00;0.00;;;17.90;1.00;;;;;;5077663;28;20254;-68
2022/06/04 05:43:27;;;;;;;0.00;0.00;;;17.90;1.00;;;;;;5078544;28;20237;-69
2022/06/04 05:45:59;;;;;;;0.00;0.00;;;17.90;1.00;;;;;;5077593;28;20250;-68
2022/06/04 05:48:27;;;;;;;0.00;0.00;;;18.00;1.00;;;;;;5077756;28;20314;-68
2022/06/04 05:50:57;;;;;;;0.00;0.00;;;18.10;1.00;;;;;;5078759;28;20605;-68
2022/06/04 05:53:27;;;;;;;0.00;0.00;;;18.10;1.00;;;;;;5079403;28;20267;-68
2022/06/04 05:55:55;;;;;;;0.00;0.00;;;18.20;1.00;;;;;;5077257;28;20277;-67
2022/06/04 05:58:23;;;;;;;0.00;0.00;;;18.30;1.00;;;;;;5078084;28;20215;-68
2022/06/04 06:00:58;;;;;;;0.00;0.00;;;18.50;1.00;;;;;;5078227;28;20193;-68
2022/06/04 06:03:25;;;;;;;0.00;0.00;;;18.60;1.00;;;;;;5076808;28;20260;-69
2022/06/04 06:05:53;;;;;;;0.00;0.00;;;18.70;1.00;;;;;;5079819;28;20255;-67
2022/06/04 06:08:21;;;;;;;0.00;0.00;;;18.80;1.00;;;;;;5080254;28;20198;-68
2022/06/04 06:10:50;;;;;;;0.00;0.00;;;18.90;1.00;;;;;;5083066;28;20262;-66
2022/06/04 06:13:18;;;;;;;0.00;0.00;;;19.00;1.00;;;;;;5079178;28;20296;-67
2022/06/04 06:15:46;;;;;;;0.00;0.00;;;19.10;1.00;;;;;;5081589;28;20271;-68
2022/06/04 06:18:14;;;;;;;0.00;0.00;;;19.10;1.00;;;;;;5083102;28;20205;-69
2022/06/04 06:20:44;;;;;;;0.00;0.00;;;19.10;1.00;;;;;;5078883;28;20200;-68
2022/06/04 06:23:12;;;;;;;0.00;0.00;;;19.20;1.00;;;;;;5082304;28;20227;-69
2022/06/04 06:25:40;;;;;;;0.00;0.00;;;19.20;1.00;;;;;;5079396;28;20201;-68
2022/06/04 06:28:09;;;;;;;0.00;0.00;;;19.20;1.00;;;;;;5081395;28;20197;-68
2022/06/04 06:30:37;;;;;;;0.00;0.00;;;19.20;1.00;;;;;;5081484;28;20205;-68
2022/06/04 06:33:05;;;;;;;0.00;0.00;;;19.30;1.00;;;;;;5081034;28;20198;-68
2022/06/04 06:35:32;;;;;;;0.00;0.00;;;19.30;1.00;;;;;;5080619;28;20602;-69
2022/06/04 06:38:00;;;;;;;0.00;0.00;;;19.30;1.00;;;;;;5074846;28;20270;-68
2022/06/04 06:40:28;;;;;;;0.00;0.00;;;19.30;1.00;;;;;;5079647;28;20239;-68
2022/06/04 06:42:56;;;;;;;0.00;0.00;;;19.30;1.00;;;;;;5081320;28;20703;-69
2022/06/04 06:45:25;;;;;;;0.00;0.00;;;19.30;1.00;;;;;;5082400;28;20210;-69
2022/06/04 06:47:53;;;;;;;0.00;0.00;;;19.30;1.00;;;;;;5081908;28;20590;-70
2022/06/04 06:50:20;;;;;;;0.00;0.00;;;19.30;1.00;;;;;;5082092;28;20224;-68
2022/06/04 06:52:48;;;;;;;0.00;0.00;;;19.30;1.00;;;;;;5082327;28;20197;-68
2022/06/04 06:55:16;;;;;;;0.00;0.00;;;19.30;1.00;;;;;;5079996;28;20202;-69
2022/06/04 06:57:44;;;;;;;0.00;0.00;;;19.30;1.00;;;;;;5082217;28;20687;-69
2022/06/04 07:00:12;;;;;;;0.00;0.00;;;19.30;1.00;;;;;;5081208;28;20204;-69
2022/06/04 07:02:41;;;;;;;0.00;0.00;;;19.40;1.00;;;;;;5080360;28;20224;-69
2022/06/04 07:05:10;;;;;;;0.00;0.00;;;19.40;1.00;;;;;;5081134;28;20275;-69
2022/06/04 07:07:37;;;;;;;0.03;0.03;;;19.40;1.00;;;;;;5079293;28;20206;-68
2022/06/04 07:10:14;;;;;;;0.00;0.00;;;19.40;1.00;;;;;;5079446;28;20246;-68
2022/06/04 07:12:44;;;;;;;0.10;0.10;;;19.30;1.00;;;;;;5081271;28;20192;-68
2022/06/04 07:15:12;;;;;;;0.00;0.00;;;19.20;1.00;;;;;;5080029;28;20496;-69
2022/06/04 07:17:41;;;;;;;0.00;0.00;;;19.10;1.00;;;;;;5078908;28;20749;-68
2022/06/04 07:20:10;;;;;;;0.00;0.00;;;19.20;1.00;;;;;;5080677;28;20259;-69
2022/06/04 07:22:38;;;;;;;0.00;0.00;;;19.30;1.00;;;;;;5079905;28;20223;-69
2022/06/04 07:25:07;;;;;;;0.00;0.00;;;19.30;1.00;;;;;;5081797;28;20221;-68
2022/06/04 07:27:34;;;;;;;0.00;0.00;;;19.50;1.00;;;;;;5080292;28;20224;-69
2022/06/04 07:30:03;;;;;;;0.00;0.00;;;19.50;1.00;;;;;;5074760;28;20197;-69
2022/06/04 07:32:31;;;;;;;0.00;0.00;;;19.50;1.00;;;;;;5073625;28;20539;-68
2022/06/04 07:35:00;;;;;;;0.00;0.00;;;19.60;1.00;;;;;;5077203;28;20613;-68
2022/06/04 07:37:28;;;;;;;0.00;0.00;;;19.60;1.00;;;;;;5078290;28;20194;-68
2022/06/04 07:39:56;;;;;;;0.00;0.00;;;19.70;1.00;;;;;;5076439;28;20235;-68
2022/06/04 07:42:23;;;;;;;0.00;0.00;;;19.80;1.00;;;;;;5081163;28;20205;-68
2022/06/04 07:44:51;;;;;;;0.00;0.00;;;19.90;1.00;;;;;;5080268;28;20255;-68
2022/06/04 07:47:19;;;;;;;0.00;0.00;;;20.00;1.00;;;;;;5079547;28;20204;-68
2022/06/04 07:49:47;;;;;;;0.00;0.00;;;20.00;1.00;;;;;;5078427;28;20682;-68
2022/06/04 07:52:16;;;;;;;0.00;0.00;;;20.00;1.00;;;;;;5079354;28;20213;-68
2022/06/04 07:54:43;;;;;;;0.00;0.00;;;20.10;1.00;;;;;;5078222;28;20630;-68
2022/06/04 07:57:11;;;;;;;0.00;0.00;;;20.10;1.00;;;;;;5076826;28;20685;-68
2022/06/04 07:59:39;;;;;;;0.00;0.00;;;20.10;1.00;;;;;;5078103;28;20817;-68
2022/06/04 08:02:08;;;;;;;0.00;0.00;;;20.20;1.00;;;;;;5077605;28;20205;-68
2022/06/04 08:04:36;;;;;;;0.00;0.00;;;20.30;1.00;;;;;;5080377;28;20701;-68
2022/06/04 08:07:04;;;;;;;0.00;0.00;;;20.40;1.00;;;;;;5077378;28;20232;-69
2022/06/04 08:09:34;;;;;;;0.00;0.00;;;20.40;1.00;;;;;;5079394;28;20718;-68
2022/06/04 08:12:01;;;;;;;0.00;0.00;;;20.40;1.00;;;;;;5077085;28;20554;-68
2022/06/04 08:14:29;;;;;;;0.00;0.00;;;20.40;1.00;;;;;;5074526;28;20237;-69
2022/06/04 08:16:59;;;;;;;0.00;0.00;;;20.50;1.00;;;;;;5080210;28;20212;-68
2022/06/04 08:19:30;;;;;;;0.00;0.00;;;20.50;1.00;;;;;;5077847;28;20205;-69
2022/06/04 08:21:58;;;;;;;0.00;0.00;;;20.60;1.00;;;;;;5078856;28;20197;-70
2022/06/04 08:24:26;;;;;;;0.00;0.00;;;20.60;1.00;;;;;;5080864;28;20582;-69
2022/06/04 08:26:58;;;;;;;0.00;0.00;;;20.70;99.90;;;;;;5078969;28;20204;-68
2022/06/04 08:29:27;;;;;;;0.00;0.00;;;20.70;99.90;;;;;;5077824;28;20221;-70
2022/06/04 08:31:55;;;;;;;0.00;0.00;;;20.80;99.90;;;;;;5079819;28;20202;-69
2022/06/04 08:34:23;;;;;;;0.00;0.00;;;20.80;99.90;;;;;;5080134;28;20221;-69
2022/06/04 08:36:51;;;;;;;0.00;0.00;;;20.80;99.90;;;;;;5079053;28;20205;-69
2022/06/04 08:39:19;;;;;;;0.00;0.00;;;20.90;99.90;;;;;;5079000;28;20193;-69
2022/06/04 08:42:00;;;;;;;0.00;0.00;;;20.80;99.90;;;;;;5077430;28;20582;-69
2022/06/04 08:44:33;;;;;;;0.00;0.00;;;20.80;99.90;;;;;;5079443;28;20699;-69
2022/06/04 08:47:12;;;;;;;0.00;0.00;;;21.00;99.90;;;;;;5078214;28;20198;-69
2022/06/04 08:49:44;;;;;;;0.00;0.00;;;21.10;99.90;;;;;;5079127;28;20680;-69
2022/06/04 08:52:17;;;;;;;0.00;0.00;;;21.30;99.90;;;;;;5079819;28;20259;-69
2022/06/04 08:57:46;;;;;;;0.00;0.00;;;21.50;99.90;;;;;;5078350;28;20209;-70
2022/06/04 09:00:19;;;;;;;0.00;0.00;;;21.70;99.90;;;;;;5079278;28;20606;-69
2022/06/04 09:02:59;;;;;;;0.00;0.00;;;21.80;1.00;;;;;;5078211;28;20204;-70
2022/06/04 09:05:36;;;;;;;0.00;0.00;;;21.80;1.00;;;;;;5078090;28;20221;-69
2022/06/04 09:08:12;;;;;;;0.00;0.00;;;21.90;1.00;;;;;;5079200;28;20720;-70
2022/06/04 09:10:44;;;;;;;0.00;0.00;;;21.90;1.00;;;;;;5078630;28;20242;-69
2022/06/04 09:13:19;;;;;;;0.00;0.00;;;21.90;1.00;;;;;;5079397;28;20837;-69
2022/06/04 09:15:51;;;;;;;0.00;0.00;;;22.00;1.00;;;;;;5078340;28;20193;-69
2022/06/04 09:18:24;;;;;;;0.00;0.00;;;22.10;1.00;;;;;;5077746;28;20196;-69
2022/06/04 09:20:56;;;;;;;0.00;0.00;;;22.20;1.00;;;;;;5078648;28;20333;-69
2022/06/04 09:23:32;;;;;;;0.00;0.00;;;22.30;1.00;;;;;;5079422;28;20224;-69
2022/06/04 09:26:04;;;;;;;0.00;0.00;;;22.20;1.00;;;;;;5079597;28;20720;-69
2022/06/04 09:28:43;;;;;;;0.00;0.00;;;22.30;1.00;;;;;;5077926;28;20213;-69
2022/06/04 09:31:23;;;;;;;0.00;0.00;;;22.30;1.00;;;;;;5079889;28;20627;-69
2022/06/04 09:33:55;;;;;;;0.00;0.00;;;22.40;1.00;;;;;;5079700;28;20327;-69
2022/06/04 09:36:26;;;;;;;0.00;0.00;;;22.40;1.00;;;;;;5077850;28;20567;-69
2022/06/04 09:38:59;;;;;;;0.00;0.00;;;22.40;1.00;;;;;;5074884;28;20212;-69
2022/06/04 09:41:29;;;;;;;0.00;0.00;;;22.30;1.00;;;;;;5081345;28;20201;-70
2022/06/04 09:44:04;;;;;;;0.00;0.00;;;22.30;1.00;;;;;;5084095;28;20716;-69
2022/06/04 09:46:32;;;;;;;0.00;0.00;;;22.30;1.00;;;;;;5082356;28;20287;-69
2022/06/04 09:49:01;;;;;;;0.00;0.00;;;22.10;1.00;;;;;;5082459;28;20201;-68
2022/06/04 09:51:37;;;;;;;0.00;0.00;;;22.20;1.00;;;;;;5081090;28;20665;-69
2022/06/04 09:54:06;;;;;;;0.00;0.00;;;22.20;1.00;;;;;;5083241;28;20216;-69
2022/06/04 09:56:38;;;;;;;0.00;0.00;;;22.30;1.00;;;;;;5082184;28;20196;-68
2022/06/04 09:59:19;;;;;;;0.00;0.00;;;22.30;1.00;;;;;;5082443;28;20577;-69
2022/06/04 10:01:55;;;;;;;0.00;0.00;;;22.40;1.00;;;;;;5082206;28;20271;-69
2022/06/04 10:04:24;;;;;;;0.00;0.00;;;22.30;1.00;;;;;;5082119;28;20221;-69
2022/06/04 10:06:52;;;;;;;0.00;0.00;;;22.30;1.00;;;;;;5081915;28;20202;-69
2022/06/04 10:12:17;;;;;;;0.00;0.00;;;22.30;1.00;;;;;;5082403;28;20205;-69
2022/06/04 10:14:58;;;;;;;0.00;0.00;;;22.30;1.00;;;;;;5082302;28;20225;-69
2022/06/04 10:17:34;;;;;;;0.00;0.00;;;22.40;1.00;;;;;;5083258;28;20211;-69
2022/06/04 10:20:03;;;;;;;0.00;0.00;;;22.60;1.00;;;;;;5081413;28;20202;-68
2022/06/04 10:22:31;;;;;;;0.00;0.00;;;22.70;99.90;;;;;;5082697;28;20228;-68
2022/06/04 10:25:03;;;;;;;0.00;0.00;;;22.70;1.00;;;;;;5082330;28;20300;-68
2022/06/04 10:27:44;;;;;;;0.00;0.00;;;22.90;99.90;;;;;;5081777;28;20200;-69
2022/06/04 10:30:24;;;;;;;0.00;0.00;;;23.00;99.90;;;;;;5082637;28;20197;-68
2022/06/04 10:33:05;;;;;;;0.00;0.00;;;23.10;99.90;;;;;;5082266;28;20549;-68
2022/06/04 10:35:48;;;;;;;0.00;0.00;;;23.10;1.00;;;;;;5082055;28;20679;-69
2022/06/04 10:38:27;;;;;;;0.00;0.00;;;23.20;1.00;;;;;;5081500;28;20614;-68
2022/06/04 10:41:12;;;;;;;0.00;0.00;;;23.20;1.00;;;;;;5081355;28;20219;-68
2022/06/04 10:44:23;;;;;;;0.00;0.00;;;23.30;1.00;;;;;;5082055;28;20229;-69
2022/06/04 10:47:04;;;;;;;0.00;0.00;;;23.30;1.00;;;;;;5016700;28;20265;-68
2022/06/04 10:50:08;;;;;;;0.00;0.00;;;23.30;1.00;;;;;;5080190;28;20205;-68
2022/06/04 10:52:42;;;;;;;0.00;0.00;;;23.30;99.90;;;;;;5079585;28;20229;-69
2022/06/04 10:55:19;;;;;;;0.00;0.00;;;23.30;99.90;;;;;;5081629;28;20209;-69
2022/06/04 10:58:04;;;;;;;0.00;0.00;;;23.30;99.90;;;;;;5078075;28;20296;-69
2022/06/04 11:00:40;;;;;;;0.00;0.00;;;23.40;99.90;;;;;;5083584;28;20251;-69
2022/06/04 11:03:19;;;;;;;0.00;0.00;;;23.60;1.00;;;;;;5080263;28;21301;-69
2022/06/04 11:05:51;;;;;;;0.00;0.00;;;23.70;1.00;;;;;;5086863;28;20216;-69
2022/06/04 11:08:24;;;;;;;0.00;0.00;;;23.70;99.90;;;;;;5080980;28;20677;-68
2022/06/04 11:10:58;;;;;;;0.00;0.00;;;23.80;99.90;;;;;;5080370;28;20215;-69
2022/06/04 11:13:33;;;;;;;0.00;0.00;;;23.80;99.90;;;;;;5079649;28;20230;-68
2022/06/04 11:16:07;;;;;;;0.00;0.00;;;23.80;99.90;;;;;;5080660;28;20620;-68
2022/06/04 11:18:43;;;;;;;0.00;0.00;;;23.80;9.50;;;;;;5078379;28;20291;-69
2022/06/04 11:21:25;;;;;;;0.00;0.00;;;23.60;99.90;;;;;;5075294;28;20206;-69
2022/06/04 11:23:58;;;;;;;0.00;0.00;;;23.60;1.00;;;;;;5076204;28;20247;-69
2022/06/04 11:26:32;;;;;;;0.00;0.00;;;23.60;99.90;;;;;;5076781;28;20216;-69
2022/06/04 11:29:02;;;;;;;0.00;0.00;;;23.60;99.90;;;;;;5078950;28;20205;-69
2022/06/04 11:31:48;;;;;;;0.00;0.00;;;23.70;99.90;;;;;;5079754;28;20202;-68
2022/06/04 11:34:45;;;;;;;0.00;0.00;;;23.80;99.90;;;;;;5080108;28;20225;-69
2022/06/04 11:37:21;;;;;;;0.00;0.00;;;23.80;1.00;;;;;;5077725;28;20193;-70
2022/06/04 11:40:07;;;;;;;0.00;0.00;;;23.90;99.90;;;;;;5078063;28;20224;-68
2022/06/04 11:42:47;;;;;;;0.00;0.00;;;23.80;1.00;;;;;;5076615;28;20205;-69
2022/06/04 11:45:45;;;;;;;0.00;0.00;;;23.70;1.00;;;;;;5078883;28;20273;-69
2022/06/04 11:48:34;;;;;;;0.00;0.00;;;23.70;92.00;;;;;;5077701;28;20210;-69
2022/06/04 11:51:22;;;;;;;0.00;0.00;;;23.80;99.90;;;;;;5079133;28;20206;-69
2022/06/04 11:53:55;;;;;;;0.00;0.00;;;23.70;1.00;;;;;;5079140;28;20229;-69
2022/06/04 11:56:31;;;;;;;0.00;0.00;;;23.70;1.00;;;;;;5079237;28;20718;-69
2022/06/04 11:59:20;;;;;;;0.00;0.00;;;23.70;1.00;;;;;;5079792;28;20591;-69
2022/06/04 12:01:51;;;;;;;0.00;0.00;;;23.70;1.00;;;;;;5081587;28;20993;-69
2022/06/04 12:04:27;;;;;;;0.00;0.00;;;23.70;1.00;;;;;;5080593;28;20463;-69
2022/06/04 12:07:04;;;;;;;0.00;0.00;;;23.80;1.00;;;;;;5079384;28;20274;-69
2022/06/04 12:09:48;;;;;;;0.00;0.00;;;23.80;1.00;;;;;;5078929;28;20205;-69
2022/06/04 12:12:21;;;;;;;0.00;0.00;;;23.80;1.00;;;;;;5078589;28;20201;-69
2022/06/04 12:14:54;;;;;;;0.00;0.00;;;23.80;99.90;;;;;;5078815;28;20723;-69
2022/06/04 12:17:26;;;;;;;0.00;0.00;;;23.80;99.90;;;;;;5078202;28;20198;-69
2022/06/04 12:25:38;;;;;;;0.00;0.00;;;23.70;99.90;;;;;;5079728;28;20308;-69
2022/06/04 12:28:21;;;;;;;0.00;0.00;;;23.70;99.90;;;;;;5078515;28;20200;-69
2022/06/04 12:30:49;;;;;;;0.00;0.00;;;23.50;99.90;;;;;;5075640;28;20207;-69
2022/06/04 12:33:26;;;;;;;0.00;0.00;;;23.50;1.00;;;;;;5077287;28;20640;-69
2022/06/04 12:35:57;;;;;;;0.00;0.00;;;23.50;1.00;;;;;;5079300;28;20197;-69
2022/06/04 12:38:27;;;;;;;0.00;0.00;;;23.50;1.00;;;;;;5074722;28;20208;-69
2022/06/04 12:41:07;;;;;;;0.00;0.00;;;23.60;1.00;;;;;;5080433;28;20209;-69
2022/06/04 12:43:39;;;;;;;0.00;0.00;;;23.60;1.00;;;;;;5077952;28;20724;-69
2022/06/04 12:46:13;;;;;;;0.00;0.00;;;23.60;1.00;;;;;;5078634;28;20217;-69
2022/06/04 12:48:56;;;;;;;0.00;0.00;;;23.60;1.00;;;;;;5078898;28;20255;-69
2022/06/04 12:51:46;;;;;;;0.00;0.00;;;23.50;1.00;;;;;;5077671;28;20284;-69
2022/06/04 12:54:31;;;;;;;0.00;0.00;;;23.40;1.00;;;;;;5081851;28;20217;-70
2022/06/04 12:57:05;;;;;;;0.00;0.00;;;23.40;1.00;;;;;;5079404;28;20185;-70
2022/06/04 12:59:42;;;;;;;0.00;0.00;;;23.30;1.00;;;;;;5078807;28;20204;-69
2022/06/04 13:02:33;;;;;;;0.00;0.00;;;23.20;1.00;;;;;;5081883;28;20303;-69
2022/06/04 13:05:18;;;;;;;0.00;0.00;;;23.20;1.00;;;;;;5083451;28;20462;-69
2022/06/04 13:07:55;;;;;;;0.00;0.00;;;23.00;1.00;;;;;;5080844;28;20279;-71
2022/06/04 13:10:32;;;;;;;0.00;0.00;;;22.90;1.00;;;;;;5079334;28;20267;-69
2022/06/04 13:13:12;;;;;;;0.00;0.00;;;22.80;1.00;;;;;;5077797;28;20198;-69
2022/06/04 13:15:46;;;;;;;0.00;0.00;;;22.70;1.00;;;;;;5087083;28;20201;-70
2022/06/04 13:18:21;;;;;;;0.00;0.00;;;22.60;1.00;;;;;;5085267;28;20196;-70
2022/06/04 13:20:54;;;;;;;0.00;0.00;;;22.50;99.90;;;;;;5078059;28;20219;-70
2022/06/04 13:23:28;;;;;;;0.00;0.00;;;22.60;99.90;;;;;;5079245;28;20561;-70
2022/06/04 13:26:24;;;;;;;0.00;0.00;;;22.60;99.90;;;;;;5074748;28;20458;-70
2022/06/04 13:28:53;;;;;;;0.00;0.00;;;22.70;1.00;;;;;;5076305;28;20224;-70
2022/06/04 13:31:23;;;;;;;0.00;0.00;;;22.80;1.00;;;;;;5079821;28;20262;-70
2022/06/04 13:33:53;;;;;;;0.00;0.00;;;22.80;1.00;;;;;;5079243;28;20318;-70
2022/06/04 13:36:23;;;;;;;0.00;0.00;;;22.80;99.90;;;;;;5079217;28;20208;-70
2022/06/04 13:38:55;;;;;;;0.00;0.00;;;22.80;99.90;;;;;;5078773;28;20197;-70
2022/06/04 13:44:18;;;;;;;0.00;0.00;;;22.70;1.00;;;;;;5079655;28;20695;-70